Time;durP1;ratioP1;P1;durP2;ratioP2;P2;SDS_P1;SDS_P2;PMS_P1;PMS_P2;Temp;Humidity;BMP_temperature;BMP_pressure;BME280_temperature;BME280_humidity;BME280_pressure;Samples;Min_cycle;Max_cycle;Signal;HPM_P1;HPM_P2
2023/12/09 00:01:29;;;;;;;61.75;39.60;;;;;;;;;;4974325;28;20030;-65
2023/12/09 00:03:55;;;;;;;70.68;44.75;;;;;;;;;;4975062;28;20027;-66
2023/12/09 00:06:22;;;;;;;68.10;46.25;;;;;;;;;;4985722;28;20018;-65
2023/12/09 00:08:49;;;;;;;68.20;43.53;;;;;;;;;;4975648;28;20099;-66
2023/12/09 00:11:15;;;;;;;57.40;39.25;;;;;;;;;;4974283;28;20040;-66
2023/12/09 00:13:41;;;;;;;60.28;40.60;;;;;;;;;;4971969;28;20031;-66
2023/12/09 00:16:08;;;;;;;61.13;40.65;;;;;;;;;;4976150;28;20510;-66
2023/12/09 00:18:34;;;;;;;66.18;43.83;;;;;;;;;;4980234;28;20492;-66
2023/12/09 00:21:00;;;;;;;61.35;40.60;;;;;;;;;;4978889;28;20069;-64
2023/12/09 00:23:26;;;;;;;62.33;42.53;;;;;;;;;;4976945;28;20015;-64
2023/12/09 00:25:51;;;;;;;61.10;40.92;;;;;;;;;;4977170;28;20023;-65
2023/12/09 00:28:17;;;;;;;60.13;40.45;;;;;;;;;;4980720;28;20019;-65
2023/12/09 00:30:43;;;;;;;61.70;40.78;;;;;;;;;;4978160;28;20115;-65
2023/12/09 00:33:09;;;;;;;56.13;39.28;;;;;;;;;;4978467;28;20019;-65
2023/12/09 00:35:35;;;;;;;66.07;43.67;;;;;;;;;;4976597;28;20072;-64
2023/12/09 00:38:02;;;;;;;60.90;42.42;;;;;;;;;;4973600;28;20102;-65
2023/12/09 00:40:28;;;;;;;62.45;42.28;;;;;;;;;;4975979;28;20378;-65
2023/12/09 00:42:54;;;;;;;64.20;42.30;;;;;;;;;;4984295;28;20394;-65
2023/12/09 00:45:20;;;;;;;54.35;37.75;;;;;;;;;;5012573;28;20011;-64
2023/12/09 00:47:46;;;;;;;65.63;42.05;;;;;;;;;;4976921;28;20021;-65
2023/12/09 00:50:12;;;;;;;61.17;40.60;;;;;;;;;;4973358;28;20117;-64
2023/12/09 00:52:38;;;;;;;67.03;44.08;;;;;;;;;;5004565;23;20054;-65
2023/12/09 00:55:04;;;;;;;66.93;41.20;;;;;;;;;;4997497;28;20052;-65
2023/12/09 00:57:30;;;;;;;60.55;37.80;;;;;;;;;;5001458;28;20018;-63
2023/12/09 00:59:56;;;;;;;61.55;41.20;;;;;;;;;;5002596;28;20060;-64
2023/12/09 01:02:22;;;;;;;58.13;37.47;;;;;;;;;;5003941;28;20018;-64
2023/12/09 01:04:48;;;;;;;59.72;39.60;;;;;;;;;;4999443;28;20098;-65
2023/12/09 01:07:14;;;;;;;57.42;38.13;;;;;;;;;;5001174;28;20101;-66
2023/12/09 01:09:40;;;;;;;58.97;39.53;;;;;;;;;;4989957;28;20478;-63
2023/12/09 01:12:06;;;;;;;60.35;39.33;;;;;;;;;;4991818;28;20014;-65
2023/12/09 01:14:32;;;;;;;58.53;38.67;;;;;;;;;;4991020;28;20030;-64
2023/12/09 01:16:58;;;;;;;55.17;37.13;;;;;;;;;;4990799;28;20072;-64
2023/12/09 01:19:24;;;;;;;55.17;37.35;;;;;;;;;;4991007;28;20026;-63
2023/12/09 01:21:50;;;;;;;56.22;37.53;;;;;;;;;;4990704;28;20023;-64
2023/12/09 01:24:16;;;;;;;55.60;37.47;;;;;;;;;;4990926;28;20022;-62
2023/12/09 01:26:42;;;;;;;54.45;36.33;;;;;;;;;;4986658;28;20394;-62
2023/12/09 01:29:08;;;;;;;58.83;38.60;;;;;;;;;;4995357;28;20019;-63
2023/12/09 01:31:34;;;;;;;52.22;35.58;;;;;;;;;;4990798;28;20018;-63
2023/12/09 01:34:01;;;;;;;56.45;36.28;;;;;;;;;;4992025;28;20045;-62
2023/12/09 01:36:27;;;;;;;55.33;35.92;;;;;;;;;;4990162;28;20022;-64
2023/12/09 01:38:53;;;;;;;51.35;33.17;;;;;;;;;;4990857;28;20371;-62
2023/12/09 01:41:19;;;;;;;49.03;32.15;;;;;;;;;;4990422;28;21416;-61
2023/12/09 01:43:48;;;;;;;50.08;33.00;;;;;;;;;;4998938;28;20010;-60
2023/12/09 01:46:14;;;;;;;53.03;32.85;;;;;;;;;;4997127;28;20482;-63
2023/12/09 01:48:40;;;;;;;49.58;33.38;;;;;;;;;;4997780;28;20550;-63
2023/12/09 01:51:07;;;;;;;46.65;31.38;;;;;;;;;;5000933;28;20033;-62
2023/12/09 01:53:33;;;;;;;44.33;28.63;;;;;;;;;;4984909;28;20057;-62
2023/12/09 01:56:00;;;;;;;47.10;26.95;;;;;;;;;;4996085;28;20537;-64
2023/12/09 01:58:27;;;;;;;42.60;28.77;;;;;;;;;;4991618;28;20097;-64
2023/12/09 02:00:53;;;;;;;41.80;28.20;;;;;;;;;;4988973;28;20145;-63
2023/12/09 02:03:19;;;;;;;44.88;30.08;;;;;;;;;;4991344;28;20089;-64
2023/12/09 02:05:46;;;;;;;43.53;28.98;;;;;;;;;;4990605;28;20023;-63
2023/12/09 02:08:12;;;;;;;42.22;29.23;;;;;;;;;;4990224;28;20025;-65
2023/12/09 02:10:38;;;;;;;40.72;27.60;;;;;;;;;;4988242;28;20061;-64
2023/12/09 02:13:17;;;;;;;39.08;25.42;;;;;;;;;;4982333;28;20086;-63
2023/12/09 02:15:50;;;;;;;43.50;27.17;;;;;;;;;;4989956;28;20026;-65
2023/12/09 02:18:17;;;;;;;36.58;25.30;;;;;;;;;;4990024;28;20049;-65
2023/12/09 02:20:43;;;;;;;38.25;25.35;;;;;;;;;;4989611;28;20084;-64
2023/12/09 02:23:09;;;;;;;37.58;26.33;;;;;;;;;;4989949;28;20026;-64
2023/12/09 02:25:36;;;;;;;39.00;26.08;;;;;;;;;;4989424;28;20030;-64
2023/12/09 02:28:18;;;;;;;36.45;24.88;;;;;;;;;;4998171;28;20027;-65
2023/12/09 02:30:54;;;;;;;40.83;25.95;;;;;;;;;;4996217;28;20023;-64
2023/12/09 02:33:21;;;;;;;43.13;28.55;;;;;;;;;;5000267;28;20480;-63
2023/12/09 02:35:48;;;;;;;39.97;26.73;;;;;;;;;;4998454;28;20030;-64
2023/12/09 02:38:16;;;;;;;40.90;25.23;;;;;;;;;;4996961;28;20105;-64
2023/12/09 02:40:42;;;;;;;39.85;27.13;;;;;;;;;;4996836;28;20022;-63
2023/12/09 02:43:09;;;;;;;40.28;26.15;;;;;;;;;;5000342;28;20385;-64
2023/12/09 02:45:35;;;;;;;35.97;24.80;;;;;;;;;;4999623;28;20469;-64
2023/12/09 02:48:01;;;;;;;35.78;24.10;;;;;;;;;;4996958;28;20076;-63
2023/12/09 02:50:27;;;;;;;37.67;25.00;;;;;;;;;;4997127;28;20026;-63
2023/12/09 02:52:53;;;;;;;33.25;23.92;;;;;;;;;;4998301;28;20084;-62
2023/12/09 02:55:19;;;;;;;35.95;24.67;;;;;;;;;;4999869;28;20469;-60
2023/12/09 02:57:45;;;;;;;34.05;23.23;;;;;;;;;;4999060;28;20067;-62
2023/12/09 03:00:11;;;;;;;32.95;22.30;;;;;;;;;;4995503;28;20026;-61
2023/12/09 03:02:37;;;;;;;31.20;22.08;;;;;;;;;;4981148;28;20019;-62
2023/12/09 03:05:03;;;;;;;31.60;21.13;;;;;;;;;;4999146;28;20438;-61
2023/12/09 03:07:29;;;;;;;32.83;22.98;;;;;;;;;;5000011;28;20026;-62
2023/12/09 03:09:55;;;;;;;34.40;22.63;;;;;;;;;;4997575;28;20022;-62
2023/12/09 03:12:21;;;;;;;30.67;20.83;;;;;;;;;;4996384;28;20022;-62
2023/12/09 03:14:47;;;;;;;30.77;20.75;;;;;;;;;;4996949;28;20075;-62
2023/12/09 03:17:13;;;;;;;32.75;20.85;;;;;;;;;;4999363;28;20026;-63
2023/12/09 03:19:39;;;;;;;32.30;20.90;;;;;;;;;;4999727;28;20078;-63
2023/12/09 03:22:05;;;;;;;34.47;20.92;;;;;;;;;;4995179;28;20390;-64
2023/12/09 03:24:31;;;;;;;29.45;19.77;;;;;;;;;;4995999;28;20083;-65
2023/12/09 03:26:57;;;;;;;25.85;17.83;;;;;;;;;;4998218;28;20069;-64
2023/12/09 03:29:23;;;;;;;28.70;18.98;;;;;;;;;;4999621;28;20026;-64
2023/12/09 03:31:49;;;;;;;29.05;19.08;;;;;;;;;;4997986;28;20040;-64
2023/12/09 03:34:15;;;;;;;28.60;19.95;;;;;;;;;;4996148;28;20022;-64
2023/12/09 03:36:42;;;;;;;29.88;19.88;;;;;;;;;;4995948;28;20027;-63
2023/12/09 03:39:11;;;;;;;28.25;16.77;;;;;;;;;;4999742;28;20022;-63
2023/12/09 03:41:37;;;;;;;24.35;16.75;;;;;;;;;;4999492;28;20054;-64
2023/12/09 03:44:03;;;;;;;27.25;18.38;;;;;;;;;;4995863;28;20099;-63
2023/12/09 03:46:29;;;;;;;26.92;16.52;;;;;;;;;;4995959;28;20030;-65
2023/12/09 03:48:55;;;;;;;24.95;16.63;;;;;;;;;;4998138;28;20155;-66
2023/12/09 03:51:21;;;;;;;24.77;15.82;;;;;;;;;;4999410;28;20064;-64
2023/12/09 03:53:47;;;;;;;26.77;17.38;;;;;;;;;;5001084;28;20014;-62
2023/12/09 03:56:16;;;;;;;23.77;15.32;;;;;;;;;;4999004;28;20026;-61
2023/12/09 03:58:42;;;;;;;25.40;16.10;;;;;;;;;;4999422;28;20033;-62
2023/12/09 04:01:08;;;;;;;24.83;16.65;;;;;;;;;;4994674;28;20094;-63
2023/12/09 04:03:34;;;;;;;27.45;17.40;;;;;;;;;;4994548;28;20043;-64
2023/12/09 04:06:01;;;;;;;21.38;13.60;;;;;;;;;;4999103;28;20045;-63
2023/12/09 04:08:27;;;;;;;26.30;14.43;;;;;;;;;;4999286;28;20022;-64
2023/12/09 04:10:53;;;;;;;23.45;13.23;;;;;;;;;;5000734;28;20482;-63
2023/12/09 04:13:19;;;;;;;23.48;14.80;;;;;;;;;;5002341;28;20026;-64
2023/12/09 04:15:45;;;;;;;23.60;13.35;;;;;;;;;;5001018;28;20026;-64
2023/12/09 04:18:11;;;;;;;21.60;14.18;;;;;;;;;;4998926;28;20065;-63
2023/12/09 04:20:37;;;;;;;21.65;14.45;;;;;;;;;;4998726;28;20083;-64
2023/12/09 04:23:04;;;;;;;19.38;12.55;;;;;;;;;;5001985;28;20022;-63
2023/12/09 04:25:30;;;;;;;17.05;11.38;;;;;;;;;;5001698;28;20029;-64
2023/12/09 04:27:56;;;;;;;23.42;12.02;;;;;;;;;;4998623;28;20493;-64
2023/12/09 04:30:23;;;;;;;19.85;12.35;;;;;;;;;;4998870;28;20032;-63
2023/12/09 04:32:49;;;;;;;17.73;12.48;;;;;;;;;;4998480;28;20397;-66
2023/12/09 04:35:15;;;;;;;18.20;11.55;;;;;;;;;;5001716;28;20397;-64
2023/12/09 04:37:41;;;;;;;19.17;11.63;;;;;;;;;;5001871;28;20026;-63
2023/12/09 04:40:11;;;;;;;20.05;12.15;;;;;;;;;;4998744;28;20121;-63
2023/12/09 04:42:38;;;;;;;21.05;12.73;;;;;;;;;;4998438;28;20100;-65
2023/12/09 04:45:05;;;;;;;19.08;12.10;;;;;;;;;;5001395;28;20059;-64
2023/12/09 04:47:31;;;;;;;18.05;11.50;;;;;;;;;;5002124;28;20024;-64
2023/12/09 04:49:57;;;;;;;17.55;12.02;;;;;;;;;;5000027;28;20561;-64
2023/12/09 04:52:23;;;;;;;19.48;11.05;;;;;;;;;;4999262;28;20027;-64
2023/12/09 04:54:49;;;;;;;16.40;11.27;;;;;;;;;;5000340;28;20038;-64
2023/12/09 04:57:15;;;;;;;15.60;9.88;;;;;;;;;;5001810;28;20044;-65
2023/12/09 04:59:41;;;;;;;14.43;10.35;;;;;;;;;;4999770;28;20075;-64
2023/12/09 05:02:07;;;;;;;17.48;11.65;;;;;;;;;;4983510;28;20027;-64
2023/12/09 05:04:33;;;;;;;16.10;10.45;;;;;;;;;;4997982;28;20493;-65
2023/12/09 05:06:59;;;;;;;17.38;11.23;;;;;;;;;;5000504;28;20050;-64
2023/12/09 05:09:25;;;;;;;16.33;10.68;;;;;;;;;;5001774;28;20026;-64
2023/12/09 05:11:51;;;;;;;17.52;10.27;;;;;;;;;;4999711;28;20029;-63
2023/12/09 05:14:17;;;;;;;16.65;10.18;;;;;;;;;;4998443;28;20023;-63
2023/12/09 05:16:43;;;;;;;15.82;9.90;;;;;;;;;;4998177;28;20061;-59
2023/12/09 05:19:09;;;;;;;16.98;10.27;;;;;;;;;;5001770;28;20528;-60
2023/12/09 05:21:35;;;;;;;14.25;9.23;;;;;;;;;;5001686;28;20010;-59
2023/12/09 05:24:02;;;;;;;15.05;9.57;;;;;;;;;;4998156;28;20160;-61
2023/12/09 05:26:29;;;;;;;16.27;10.10;;;;;;;;;;4997881;28;20033;-61
2023/12/09 05:28:55;;;;;;;13.55;9.45;;;;;;;;;;4999717;28;20049;-61
2023/12/09 05:31:22;;;;;;;13.52;9.30;;;;;;;;;;5001375;28;20033;-61
2023/12/09 05:33:48;;;;;;;13.38;8.80;;;;;;;;;;4999927;28;20789;-61
2023/12/09 05:36:14;;;;;;;13.48;9.52;;;;;;;;;;4997660;28;20042;-61
2023/12/09 05:38:43;;;;;;;14.35;9.30;;;;;;;;;;4997567;28;20038;-63
2023/12/09 05:41:10;;;;;;;18.85;8.98;;;;;;;;;;5001198;28;20018;-64
2023/12/09 05:43:36;;;;;;;16.35;9.35;;;;;;;;;;5001616;28;20436;-64
2023/12/09 05:46:02;;;;;;;13.88;8.27;;;;;;;;;;4997451;28;20714;-63
2023/12/09 05:48:28;;;;;;;12.43;8.55;;;;;;;;;;4998163;28;20026;-64
2023/12/09 05:50:54;;;;;;;14.02;8.60;;;;;;;;;;4999446;28;20076;-64
2023/12/09 05:53:20;;;;;;;13.48;8.40;;;;;;;;;;5000784;28;20034;-63
2023/12/09 05:55:46;;;;;;;13.43;8.23;;;;;;;;;;4999425;28;20033;-64
2023/12/09 05:58:13;;;;;;;11.38;7.95;;;;;;;;;;4997591;28;20052;-64
2023/12/09 06:00:39;;;;;;;12.18;7.85;;;;;;;;;;4995869;28;20033;-64
2023/12/09 06:03:05;;;;;;;17.77;8.98;;;;;;;;;;4989643;28;20023;-64
2023/12/09 06:05:31;;;;;;;10.90;6.95;;;;;;;;;;4989798;28;20441;-65
2023/12/09 06:07:57;;;;;;;14.48;8.63;;;;;;;;;;4991019;28;20026;-64
2023/12/09 06:10:23;;;;;;;11.85;7.68;;;;;;;;;;4990327;28;20026;-63
2023/12/09 06:12:49;;;;;;;12.25;7.18;;;;;;;;;;4986013;28;20022;-63
2023/12/09 06:15:15;;;;;;;12.48;7.72;;;;;;;;;;4995141;28;20053;-62
2023/12/09 06:17:41;;;;;;;13.60;7.03;;;;;;;;;;4998010;28;20053;-62
2023/12/09 06:20:08;;;;;;;10.52;6.97;;;;;;;;;;4996507;28;20027;-62
2023/12/09 06:22:34;;;;;;;13.80;6.47;;;;;;;;;;4985965;28;20018;-63
2023/12/09 06:25:00;;;;;;;13.32;6.93;;;;;;;;;;4989422;28;20141;-63
2023/12/09 06:27:26;;;;;;;9.93;5.95;;;;;;;;;;4990087;28;20148;-63
2023/12/09 06:29:52;;;;;;;10.38;6.35;;;;;;;;;;4997625;28;20029;-62
2023/12/09 06:32:18;;;;;;;32.75;6.80;;;;;;;;;;4997074;28;20076;-64
2023/12/09 06:34:44;;;;;;;12.65;6.88;;;;;;;;;;4997094;28;20030;-63
2023/12/09 06:37:10;;;;;;;12.93;5.80;;;;;;;;;;4999714;28;20077;-66
2023/12/09 06:39:36;;;;;;;10.13;6.68;;;;;;;;;;5000068;28;20454;-65
2023/12/09 06:42:03;;;;;;;11.32;5.78;;;;;;;;;;4997145;28;20022;-63
2023/12/09 06:44:28;;;;;;;17.55;6.88;;;;;;;;;;4995665;28;20352;-68
2023/12/09 06:46:54;;;;;;;12.07;5.85;;;;;;;;;;4988815;28;20020;-61
2023/12/09 06:49:21;;;;;;;13.45;6.68;;;;;;;;;;4989249;28;20022;-62
2023/12/09 06:51:49;;;;;;;21.02;6.32;;;;;;;;;;4995260;28;20060;-60
2023/12/09 06:56:56;;;;;;;13.50;5.80;;;;;;;;;;4993367;28;20054;-66
2023/12/09 06:59:23;;;;;;;12.07;5.28;;;;;;;;;;4979418;28;20294;-65
2023/12/09 07:01:49;;;;;;;11.02;4.78;;;;;;;;;;4967763;28;20026;-65
2023/12/09 07:04:15;;;;;;;16.17;5.03;;;;;;;;;;4968769;28;20019;-65
2023/12/09 07:06:41;;;;;;;11.35;4.43;;;;;;;;;;4953765;28;20118;-65
2023/12/09 07:09:08;;;;;;;7.25;3.85;;;;;;;;;;4964324;28;20074;-66
2023/12/09 07:11:34;;;;;;;7.38;4.28;;;;;;;;;;4961245;28;20022;-65
2023/12/09 07:14:00;;;;;;;6.63;3.85;;;;;;;;;;4960589;28;20107;-66
2023/12/09 07:16:26;;;;;;;7.00;3.60;;;;;;;;;;4958638;28;20024;-67
2023/12/09 07:18:58;;;;;;;20.92;4.00;;;;;;;;;;4958973;28;20546;-66
2023/12/09 07:21:26;;;;;;;6.63;3.47;;;;;;;;;;4954928;28;20417;-66
2023/12/09 07:23:52;;;;;;;6.30;3.88;;;;;;;;;;4965227;28;20015;-67
2023/12/09 07:26:18;;;;;;;9.82;3.58;;;;;;;;;;4960406;28;20395;-66
2023/12/09 07:28:47;;;;;;;6.30;3.58;;;;;;;;;;4963573;28;20019;-65
2023/12/09 07:31:14;;;;;;;7.72;3.88;;;;;;;;;;4959933;28;20659;-66
2023/12/09 07:33:40;;;;;;;9.10;4.50;;;;;;;;;;4961042;28;20431;-66
2023/12/09 07:36:06;;;;;;;7.38;5.07;;;;;;;;;;4955373;28;20030;-67
2023/12/09 07:38:32;;;;;;;10.18;5.32;;;;;;;;;;4964376;28;20026;-68
2023/12/09 07:40:58;;;;;;;24.58;5.68;;;;;;;;;;4963136;28;20042;-64
2023/12/09 07:43:24;;;;;;;19.92;6.53;;;;;;;;;;4966257;28;20039;-63
2023/12/09 07:45:50;;;;;;;24.95;6.30;;;;;;;;;;4961135;28;20028;-63
2023/12/09 07:48:17;;;;;;;19.17;5.80;;;;;;;;;;4964046;28;20545;-63
2023/12/09 07:50:43;;;;;;;11.70;5.10;;;;;;;;;;4963177;28;20043;-62
2023/12/09 07:53:09;;;;;;;11.52;5.53;;;;;;;;;;4960672;28;20478;-65
2023/12/09 07:55:35;;;;;;;10.95;5.22;;;;;;;;;;4959797;28;20038;-65
2023/12/09 07:58:01;;;;;;;17.67;5.10;;;;;;;;;;4962447;28;20047;-66
2023/12/09 08:00:27;;;;;;;13.05;4.75;;;;;;;;;;4962470;28;20118;-65
2023/12/09 08:02:56;;;;;;;15.18;5.18;;;;;;;;;;4960777;28;20023;-66
2023/12/09 08:05:23;;;;;;;17.65;6.00;;;;;;;;;;4959754;28;20027;-66
2023/12/09 08:07:49;;;;;;;15.00;5.22;;;;;;;;;;4960462;28;20073;-66
2023/12/09 08:10:15;;;;;;;15.57;6.18;;;;;;;;;;4960556;28;20057;-66
2023/12/09 08:12:41;;;;;;;11.30;5.22;;;;;;;;;;4961970;28;20031;-66
2023/12/09 08:15:07;;;;;;;10.80;5.43;;;;;;;;;;4961488;28;20483;-66
2023/12/09 08:17:33;;;;;;;10.02;5.03;;;;;;;;;;4956897;28;20394;-66
2023/12/09 08:20:00;;;;;;;8.75;4.40;;;;;;;;;;4962706;28;20031;-65
2023/12/09 08:22:26;;;;;;;11.32;5.18;;;;;;;;;;4957568;28;20022;-65
2023/12/09 08:24:52;;;;;;;11.73;5.10;;;;;;;;;;4959475;28;20037;-65
2023/12/09 08:27:18;;;;;;;10.20;4.78;;;;;;;;;;4959778;28;20479;-65
2023/12/09 08:29:44;;;;;;;7.80;4.10;;;;;;;;;;4960168;28;20429;-66
2023/12/09 08:32:10;;;;;;;8.52;4.40;;;;;;;;;;4965080;28;20172;-66
2023/12/09 08:34:36;;;;;;;6.22;4.10;;;;;;;;;;4966687;28;20153;-66
2023/12/09 08:37:03;;;;;;;8.43;4.22;;;;;;;;;;4953068;28;20058;-66
2023/12/09 08:39:30;;;;;;;10.13;4.75;;;;;;;;;;4960423;28;20033;-66
2023/12/09 08:41:56;;;;;;;12.25;4.53;;;;;;;;;;4960228;28;20124;-67
2023/12/09 08:44:22;;;;;;;9.65;4.72;;;;;;;;;;4951913;28;20490;-67
2023/12/09 08:46:48;;;;;;;12.63;4.45;;;;;;;;;;4958933;28;20023;-67
2023/12/09 08:49:14;;;;;;;10.45;5.13;;;;;;;;;;4959908;28;20019;-65
2023/12/09 08:51:44;;;;;;;13.45;4.80;;;;;;;;;;4959590;28;20497;-65
2023/12/09 08:54:10;;;;;;;17.52;4.45;;;;;;;;;;4955032;28;20027;-68
2023/12/09 08:56:38;;;;;;;14.38;4.50;;;;;;;;;;4960867;28;20379;-67
2023/12/09 08:59:07;;;;;;;7.82;4.00;;;;;;;;;;4960763;28;20019;-67
2023/12/09 09:01:34;;;;;;;12.65;4.60;;;;;;;;;;4961977;28;20023;-67
2023/12/09 09:04:01;;;;;;;15.23;4.20;;;;;;;;;;4957423;28;20525;-66
2023/12/09 09:06:27;;;;;;;7.75;3.65;;;;;;;;;;4961036;28;20544;-67
2023/12/09 09:08:53;;;;;;;11.10;3.88;;;;;;;;;;4957533;28;20078;-67
2023/12/09 09:11:20;;;;;;;7.15;4.00;;;;;;;;;;4964305;28;20030;-67
2023/12/09 09:13:46;;;;;;;7.55;3.38;;;;;;;;;;4954441;28;20106;-67
2023/12/09 09:16:12;;;;;;;5.47;3.03;;;;;;;;;;4964409;28;20476;-67
2023/12/09 09:18:38;;;;;;;8.93;4.05;;;;;;;;;;4958994;28;20023;-67
2023/12/09 09:21:04;;;;;;;9.18;3.95;;;;;;;;;;4959305;28;20426;-68
2023/12/09 09:23:30;;;;;;;10.35;3.97;;;;;;;;;;4959464;28;20053;-67
2023/12/09 09:25:56;;;;;;;12.20;3.50;;;;;;;;;;4957615;28;20484;-62
2023/12/09 09:28:22;;;;;;;7.50;3.45;;;;;;;;;;4956311;28;20015;-62
2023/12/09 09:30:48;;;;;;;6.13;3.75;;;;;;;;;;4959860;28;20143;-63
2023/12/09 09:33:14;;;;;;;15.30;4.05;;;;;;;;;;4960757;28;20490;-63
2023/12/09 09:35:40;;;;;;;9.07;4.03;;;;;;;;;;4950539;28;20149;-63
2023/12/09 09:38:06;;;;;;;14.65;4.38;;;;;;;;;;4952701;28;20100;-63
2023/12/09 09:40:32;;;;;;;7.55;4.55;;;;;;;;;;4961026;28;20024;-63
2023/12/09 09:43:06;;;;;;;9.55;4.53;;;;;;;;;;4951919;28;20030;-63
2023/12/09 09:45:32;;;;;;;12.30;5.13;;;;;;;;;;4961408;28;20019;-63
2023/12/09 09:48:02;;;;;;;10.23;4.65;;;;;;;;;;4954123;28;20030;-62
2023/12/09 09:50:28;;;;;;;10.60;3.83;;;;;;;;;;4966508;28;20088;-63
2023/12/09 09:52:54;;;;;;;10.70;4.07;;;;;;;;;;4961301;28;20423;-62
2023/12/09 09:55:21;;;;;;;9.15;4.47;;;;;;;;;;4964025;28;20065;-62
2023/12/09 09:57:50;;;;;;;31.17;19.45;;;;;;;;;;4966716;28;20557;-62
2023/12/09 10:00:19;;;;;;;151.82;105.45;;;;;;;;;;4961988;28;20391;-62
2023/12/09 10:02:48;;;;;;;158.00;109.30;;;;;;;;;;4957827;28;20030;-63
2023/12/09 10:05:16;;;;;;;202.10;147.50;;;;;;;;;;4951780;28;20030;-63
2023/12/09 10:07:42;;;;;;;216.32;159.65;;;;;;;;;;4959586;28;20110;-61
2023/12/09 10:10:09;;;;;;;247.90;186.68;;;;;;;;;;4953966;28;20109;-63
2023/12/09 10:12:38;;;;;;;243.50;182.98;;;;;;;;;;4965743;28;20023;-63
2023/12/09 10:15:05;;;;;;;225.15;166.20;;;;;;;;;;4958083;28;20027;-63
2023/12/09 10:17:31;;;;;;;227.57;171.27;;;;;;;;;;4958292;28;20093;-63
2023/12/09 10:20:01;;;;;;;229.68;172.07;;;;;;;;;;4956377;28;20065;-63
2023/12/09 10:22:27;;;;;;;213.60;157.02;;;;;;;;;;4964498;28;20030;-63
2023/12/09 10:24:54;;;;;;;204.02;150.98;;;;;;;;;;4959627;28;20019;-63
2023/12/09 10:27:22;;;;;;;193.57;142.85;;;;;;;;;;4955707;28;20019;-62
2023/12/09 10:29:48;;;;;;;207.32;154.88;;;;;;;;;;4953473;28;20106;-63
2023/12/09 10:32:14;;;;;;;181.70;132.38;;;;;;;;;;4962802;28;20038;-63
2023/12/09 10:34:40;;;;;;;192.23;140.23;;;;;;;;;;4958065;28;20026;-63
2023/12/09 10:37:09;;;;;;;175.32;130.48;;;;;;;;;;4967879;28;20024;-63
2023/12/09 10:39:36;;;;;;;172.90;127.65;;;;;;;;;;4961119;28;20062;-64
2023/12/09 10:42:05;;;;;;;173.93;125.93;;;;;;;;;;4961335;28;20110;-63
2023/12/09 10:44:31;;;;;;;170.85;125.55;;;;;;;;;;4960908;28;20027;-62
2023/12/09 10:46:57;;;;;;;177.07;127.70;;;;;;;;;;4958717;28;20551;-63
2023/12/09 10:49:23;;;;;;;160.35;118.03;;;;;;;;;;4951396;28;20545;-63
2023/12/09 10:51:49;;;;;;;171.32;128.75;;;;;;;;;;4958855;28;20090;-62
2023/12/09 10:54:15;;;;;;;150.27;110.30;;;;;;;;;;4960474;28;20106;-62
2023/12/09 10:56:41;;;;;;;160.15;112.82;;;;;;;;;;4957603;28;20039;-63
2023/12/09 10:59:08;;;;;;;145.57;105.93;;;;;;;;;;4958153;28;20024;-63
2023/12/09 11:01:35;;;;;;;152.68;110.07;;;;;;;;;;4958923;28;20464;-62
2023/12/09 11:04:03;;;;;;;153.38;110.30;;;;;;;;;;4967747;28;20405;-61
2023/12/09 11:06:33;;;;;;;224.07;157.15;;;;;;;;;;4960751;28;20214;-62
2023/12/09 11:08:59;;;;;;;225.93;160.15;;;19.20;72.80;;;;;;4957653;28;20042;-65
2023/12/09 11:11:26;;;;;;;192.90;133.95;;;19.20;72.90;;;;;;4962028;28;20398;-66
2023/12/09 11:13:54;;;;;;;206.43;146.35;;;19.10;72.90;;;;;;4961790;28;20051;-65
2023/12/09 11:16:23;;;;;;;101.97;66.72;;;19.00;69.80;;;;;;4969498;28;20023;-63
2023/12/09 11:18:51;;;;;;;67.15;39.47;;;18.30;53.80;;;;;;4964493;28;20064;-55
2023/12/09 11:21:17;;;;;;;54.25;32.55;;;17.00;51.40;;;;;;4959811;28;20062;-57
2023/12/09 11:23:45;;;;;;;48.47;30.17;;;;;;;;;;4953591;28;20480;-56
2023/12/09 11:26:14;;;;;;;53.58;32.83;;;;;;;;;;4958044;28;20487;-54
2023/12/09 11:28:55;;;;;;;52.95;35.05;;;;;;;;;;4959122;28;20030;-55
2023/12/09 11:31:21;;;;;;;46.72;30.65;;;;;;;;;;4959455;28;20099;-52
2023/12/09 11:33:48;;;;;;;42.10;27.95;;;;;;;;;;4962579;28;20035;-53
2023/12/09 11:36:15;;;;;;;41.55;26.45;;;;;;;;;;4952895;28;20034;-54
2023/12/09 11:38:42;;;;;;;38.20;26.33;;;;;;;;;;4954824;28;20106;-50
2023/12/09 11:41:09;;;;;;;47.08;27.02;;;;;;;;;;4958698;28;20440;-55
2023/12/09 11:43:35;;;;;;;43.85;27.63;;;;;;;;;;4962118;28;20407;-50
2023/12/09 11:46:01;;;;;;;36.03;24.05;;;;;;;;;;4956760;28;20069;-51
2023/12/09 11:48:29;;;;;;;40.47;25.75;;;;;;;;;;4952353;28;20926;-50
2023/12/09 11:50:55;;;;;;;39.58;25.20;;;;;;;;;;4956320;28;20727;-53
2023/12/09 11:53:21;;;;;;;39.53;25.08;;;;;;;;;;4961503;28;20035;-52
2023/12/09 11:55:47;;;;;;;39.28;24.50;;;;;;;;;;4955865;28;20035;-51
2023/12/09 11:58:13;;;;;;;40.38;25.05;;;;;;;;;;4964067;28;20023;-50
2023/12/09 12:00:39;;;;;;;39.53;24.08;;;;;;;;;;4956454;28;20027;-49
2023/12/09 12:03:05;;;;;;;36.58;21.73;;;;;;;;;;4956389;28;20030;-51
2023/12/09 12:05:31;;;;;;;34.78;22.48;;;;;;;;;;4959678;28;20089;-50
2023/12/09 12:07:58;;;;;;;36.75;22.35;;;;;;;;;;4959545;28;20051;-48
2023/12/09 12:10:24;;;;;;;32.58;22.33;;;;;;;;;;4960824;28;20109;-50
2023/12/09 12:12:50;;;;;;;31.42;20.98;;;;;;;;;;4958996;28;20023;-50
2023/12/09 12:15:17;;;;;;;33.58;21.38;;;;;;;;;;4959708;28;20070;-52
2023/12/09 12:17:44;;;;;;;35.63;21.40;;;;;;;;;;4960235;28;20027;-50
2023/12/09 12:20:11;;;;;;;33.17;19.83;;;;;;;;;;4963176;28;20106;-51
2023/12/09 12:22:37;;;;;;;33.08;20.45;;;;;;;;;;4959029;28;20043;-52
2023/12/09 12:25:04;;;;;;;29.98;19.80;;;;;;;;;;4959563;28;20019;-54
2023/12/09 12:27:34;;;;;;;30.52;19.25;;;;;;;;;;4960264;28;20475;-50
2023/12/09 12:30:00;;;;;;;30.52;18.90;;;;;;;;;;4962540;28;20467;-52
2023/12/09 12:32:26;;;;;;;31.77;20.38;;;;;;;;;;4963532;28;20137;-52
2023/12/09 12:34:52;;;;;;;30.10;19.10;;;;;;;;;;4961783;28;20029;-55
2023/12/09 12:37:18;;;;;;;35.30;18.17;;;;;;;;;;4959718;28;20058;-53
2023/12/09 12:39:44;;;;;;;28.83;18.48;;;;;;;;;;4961105;28;20054;-52
2023/12/09 12:42:11;;;;;;;28.40;17.95;;;;;;;;;;4960120;28;20387;-55
2023/12/09 12:44:37;;;;;;;29.13;17.15;;;;;;;;;;4958838;28;20019;-51
2023/12/09 12:47:03;;;;;;;32.92;18.17;;;;;;;;;;4956566;28;20034;-52
2023/12/09 12:49:35;;;;;;;30.25;17.98;;;;;;;;;;4958465;28;20402;-52
2023/12/09 12:52:03;;;;;;;26.15;16.90;;;;;;;;;;4962730;28;20629;-53
2023/12/09 12:54:29;;;;;;;37.92;18.15;;;;;;;;;;4962719;28;20351;-53
2023/12/09 12:56:55;;;;;;;27.10;17.77;;;;;;;;;;4963065;28;20031;-51
2023/12/09 12:59:21;;;;;;;28.20;17.73;;;;;;;;;;4963968;28;20029;-52
2023/12/09 13:01:47;;;;;;;32.65;19.48;;;;;;;;;;4955667;28;20015;-50
2023/12/09 13:04:13;;;;;;;29.73;17.75;;;;;;;;;;4963549;28;20489;-52
2023/12/09 13:06:39;;;;;;;27.65;16.67;;;;;;;;;;4963717;28;20029;-55
2023/12/09 13:09:08;;;;;;;24.80;16.60;;;;;;;;;;4959404;28;20023;-54
2023/12/09 13:11:34;;;;;;;28.10;17.48;;;;;;;;;;4960964;28;20028;-51
2023/12/09 13:14:00;;;;;;;26.67;17.35;;;;;;;;;;4959777;28;20027;-51
2023/12/09 13:16:27;;;;;;;27.67;17.08;;;;;;;;;;4963441;28;20027;-52
2023/12/09 13:18:53;;;;;;;27.55;16.88;;;;;;;;;;4962184;28;20033;-54
2023/12/09 13:21:20;;;;;;;23.23;15.30;;;;;;;;;;4961592;28;20405;-55
2023/12/09 13:23:46;;;;;;;25.80;14.98;;;;;;;;;;4961557;28;20027;-53
2023/12/09 13:26:12;;;;;;;21.63;13.32;;;;;;;;;;4961050;28;20019;-54
2023/12/09 13:28:39;;;;;;;20.23;12.15;;;;;;;;;;4957153;28;20020;-52
2023/12/09 13:31:05;;;;;;;19.20;11.50;;;;;;;;;;4962635;28;20019;-54
2023/12/09 13:33:32;;;;;;;14.40;9.55;;;;;;;;;;4960454;28;20495;-54
2023/12/09 13:35:58;;;;;;;11.65;7.85;;;;;;;;;;4957608;28;20027;-53
2023/12/09 13:38:24;;;;;;;10.43;6.28;;;;;;;;;;4960495;28;20027;-52
2023/12/09 13:40:50;;;;;;;8.82;5.40;;;;;;;;;;4961680;28;20403;-52
2023/12/09 13:43:16;;;;;;;9.95;5.35;;;;;;;;;;4957877;28;20053;-55
2023/12/09 13:45:43;;;;;;;8.10;5.45;;;;;;;;;;4958720;28;20019;-58
2023/12/09 13:48:09;;;;;;;13.27;5.55;;;;;;;;;;4954873;28;20023;-54
2023/12/09 13:50:38;;;;;;;6.95;4.13;;;12.70;60.20;;;;;;4958400;28;20102;-56
2023/12/09 13:53:04;;;;;;;13.13;5.15;;;13.00;59.70;;;;;;4963075;28;20050;-59
2023/12/09 13:55:30;;;;;;;13.82;4.70;;;13.30;58.70;;;;;;4960207;28;20056;-57
2023/12/09 13:57:55;;;;;;;12.88;4.25;;;13.60;58.40;;;;;;4967727;28;20027;-59
2023/12/09 14:00:22;;;;;;;11.00;3.92;;;14.00;58.10;;;;;;4955785;28;20038;-57
2023/12/09 14:02:47;;;;;;;7.25;3.75;;;14.30;57.80;;;;;;4960174;28;20019;-58
2023/12/09 14:05:13;;;;;;;10.80;3.95;;;14.70;57.30;;;;;;4957642;28;20034;-58
2023/12/09 14:07:40;;;;;;;6.47;3.72;;;15.00;56.80;;;;;;4958406;28;20106;-57
2023/12/09 14:10:08;;;;;;;5.60;3.58;;;15.30;56.30;;;;;;4961524;28;20018;-58
2023/12/09 14:12:34;;;;;;;11.07;4.72;;;15.60;55.90;;;;;;4959987;28;20397;-57